createdAt,value
2019-05-29T00:01:35.949Z,10.32
2019-05-29T00:04:03.799Z,10.26
2019-05-29T00:06:33.983Z,10.18
2019-05-29T00:09:01.785Z,10.18
2019-05-29T00:11:29.521Z,10.16
2019-05-29T00:13:57.134Z,10.10
2019-05-29T00:16:25.231Z,10.08
2019-05-29T00:18:58.254Z,10.04
2019-05-29T00:21:26.237Z,9.98
2019-05-29T00:23:53.997Z,9.92
2019-05-29T00:26:21.795Z,9.87
2019-05-29T00:28:49.640Z,9.80
2019-05-29T00:31:18.182Z,9.67
2019-05-29T00:33:49.968Z,9.62
2019-05-29T00:36:23.360Z,9.62
2019-05-29T00:38:51.148Z,9.58
2019-05-29T00:41:19.351Z,9.53
2019-05-29T00:43:47.098Z,9.48
2019-05-29T00:46:17.603Z,9.45
2019-05-29T00:48:45.466Z,9.36
2019-05-29T00:51:13.227Z,9.32
2019-05-29T00:53:41.025Z,9.29
2019-05-29T00:56:10.924Z,9.29
2019-05-29T00:58:41.431Z,9.26
2019-05-29T01:01:09.249Z,9.23
2019-05-29T01:03:37.183Z,9.16
2019-05-29T01:06:05.241Z,9.13
2019-05-29T01:08:33.127Z,9.13
2019-05-29T01:11:00.770Z,9.09
2019-05-29T01:13:28.506Z,9.02
2019-05-29T01:15:56.299Z,9.02
2019-05-29T01:18:24.073Z,9.00
2019-05-29T01:20:51.850Z,8.96
2019-05-29T01:23:20.339Z,8.91
2019-05-29T01:25:48.178Z,8.87
2019-05-29T01:28:16.876Z,8.87
2019-05-29T01:30:45.239Z,8.84
2019-05-29T01:33:16.929Z,8.77
2019-05-29T01:35:42.803Z,8.74
2019-05-29T01:38:10.581Z,8.70
2019-05-29T01:40:38.342Z,8.70
2019-05-29T01:43:06.543Z,8.65
2019-05-29T01:45:34.287Z,8.63
2019-05-29T01:48:02.394Z,8.55
2019-05-29T01:50:30.006Z,8.55
2019-05-29T01:52:57.670Z,8.48
2019-05-29T01:55:25.657Z,8.48
2019-05-29T01:57:53.526Z,8.45
2019-05-29T02:00:21.972Z,8.42
2019-05-29T02:02:51.091Z,8.35
2019-05-29T02:05:19.979Z,8.35
2019-05-29T02:07:48.058Z,8.29
2019-05-29T02:10:16.019Z,8.29
2019-05-29T02:12:43.780Z,8.25
2019-05-29T02:15:23.921Z,8.18
2019-05-29T02:17:41.018Z,8.15
2019-05-29T02:20:08.631Z,8.15
2019-05-29T02:22:36.351Z,8.09
2019-05-29T02:25:04.150Z,8.05
2019-05-29T02:27:31.791Z,8.01
2019-05-29T02:29:59.657Z,7.93
2019-05-29T02:32:27.856Z,7.89
2019-05-29T02:34:56.013Z,7.89
2019-05-29T02:37:24.436Z,7.80
2019-05-29T02:39:52.158Z,7.76
2019-05-29T02:42:20.992Z,7.76
2019-05-29T02:44:49.130Z,7.68
2019-05-29T02:47:17.181Z,7.64
2019-05-29T02:49:44.878Z,7.60
2019-05-29T02:52:14.567Z,7.60
2019-05-29T02:54:42.241Z,7.56
2019-05-29T02:57:09.936Z,7.53
2019-05-29T02:59:37.591Z,7.49
2019-05-29T03:02:05.273Z,7.41
2019-05-29T03:04:34.201Z,7.41
2019-05-29T03:07:01.864Z,7.29
2019-05-29T03:09:30.765Z,7.24
2019-05-29T03:12:00.281Z,7.24
2019-05-29T03:14:29.483Z,7.19
2019-05-29T03:16:57.368Z,7.14
2019-05-29T03:19:25.975Z,7.02
2019-05-29T03:21:53.749Z,6.98
2019-05-29T03:24:21.408Z,6.98
2019-05-29T03:26:48.999Z,6.94
2019-05-29T03:29:17.130Z,6.91
2019-05-29T03:31:47.539Z,6.87
2019-05-29T03:34:14.256Z,6.87
2019-05-29T03:36:47.750Z,6.80
2019-05-29T03:39:11.296Z,6.80
2019-05-29T03:41:39.229Z,6.78
2019-05-29T03:44:10.354Z,6.78
2019-05-29T03:46:43.029Z,6.77
2019-05-29T03:49:05.831Z,6.77
2019-05-29T03:51:35.181Z,6.80
2019-05-29T03:54:02.799Z,6.88
2019-05-29T03:56:31.230Z,6.88
2019-05-29T03:59:00.014Z,6.96
2019-05-29T04:01:29.153Z,6.96
2019-05-29T04:03:57.678Z,6.95
2019-05-29T04:06:26.875Z,6.93
2019-05-29T04:08:54.864Z,6.93
2019-05-29T04:11:22.678Z,6.90
2019-05-29T04:13:50.431Z,6.90
2019-05-29T04:16:18.472Z,6.91
2019-05-29T04:18:46.091Z,6.93
2019-05-29T04:21:13.723Z,6.97
2019-05-29T04:23:41.494Z,7.05
2019-05-29T04:26:09.262Z,7.09
2019-05-29T04:28:40.427Z,7.16
2019-05-29T04:31:08.206Z,7.23
2019-05-29T04:33:36.775Z,7.31
2019-05-29T04:36:04.989Z,7.46
2019-05-29T04:38:33.803Z,7.46
2019-05-29T04:41:01.889Z,7.53
2019-05-29T04:43:31.112Z,7.66
2019-05-29T04:45:58.785Z,7.66
2019-05-29T04:48:26.423Z,7.80
2019-05-29T04:50:54.019Z,7.85
2019-05-29T04:53:21.755Z,7.93
2019-05-29T04:55:49.339Z,7.93
2019-05-29T04:58:17.050Z,8.00
2019-05-29T05:00:58.247Z,8.08
2019-05-29T05:03:14.319Z,8.16
2019-05-29T05:05:41.908Z,8.41
2019-05-29T05:08:12.281Z,8.53
2019-05-29T05:10:40.877Z,8.68
2019-05-29T05:13:08.754Z,8.81
2019-05-29T05:15:36.479Z,8.98
2019-05-29T05:18:05.209Z,8.98
2019-05-29T05:20:33.958Z,9.29
2019-05-29T05:23:01.711Z,9.29
2019-05-29T05:25:30.025Z,9.47
2019-05-29T05:27:57.625Z,9.87
2019-05-29T05:30:25.361Z,9.87
2019-05-29T05:32:52.942Z,10.21
2019-05-29T05:35:20.568Z,10.36
2019-05-29T05:37:48.153Z,10.49
2019-05-29T05:40:15.804Z,10.60
2019-05-29T05:42:43.353Z,10.60
2019-05-29T05:45:11.011Z,10.95
2019-05-29T05:47:50.023Z,11.08
2019-05-29T05:50:07.811Z,11.19
2019-05-29T05:52:35.412Z,11.19
2019-05-29T05:55:02.968Z,11.45
2019-05-29T05:57:31.515Z,11.45
2019-05-29T05:59:59.264Z,11.58
2019-05-29T06:02:33.748Z,11.77
2019-05-29T06:05:01.420Z,11.77
2019-05-29T06:07:30.141Z,12.02
2019-05-29T06:09:57.810Z,12.02
2019-05-29T06:12:28.583Z,12.09
2019-05-29T06:14:56.573Z,12.09
2019-05-29T06:17:24.165Z,12.25
2019-05-29T06:19:51.733Z,12.25
2019-05-29T06:22:19.348Z,12.29
2019-05-29T06:24:47.620Z,12.46
2019-05-29T06:27:17.106Z,12.46
2019-05-29T06:29:50.827Z,12.54
2019-05-29T06:32:18.489Z,12.64
2019-05-29T06:34:46.034Z,12.64
2019-05-29T06:37:15.084Z,12.74
2019-05-29T06:39:44.405Z,12.84
2019-05-29T06:42:12.046Z,12.92
2019-05-29T06:44:41.398Z,12.95
2019-05-29T06:47:09.117Z,13.03
2019-05-29T06:49:37.948Z,13.13
2019-05-29T06:52:09.357Z,13.27
2019-05-29T06:54:37.811Z,13.27
2019-05-29T06:57:05.883Z,13.35
2019-05-29T06:59:36.098Z,13.45
2019-05-29T07:02:03.791Z,13.45
2019-05-29T07:04:31.340Z,13.55
2019-05-29T07:06:58.951Z,13.61
2019-05-29T07:09:26.695Z,13.73
2019-05-29T07:11:54.349Z,13.73
2019-05-29T07:14:22.412Z,13.84
2019-05-29T07:16:55.911Z,13.92
2019-05-29T07:19:26.496Z,13.98
2019-05-29T07:21:48.542Z,13.98
2019-05-29T07:24:29.160Z,14.01
2019-05-29T07:26:58.810Z,13.97
2019-05-29T07:29:26.372Z,13.97
2019-05-29T07:31:54.034Z,13.91
2019-05-29T07:34:21.607Z,13.87
2019-05-29T07:36:49.317Z,13.93
2019-05-29T07:39:17.726Z,13.91
2019-05-29T07:41:45.739Z,13.94
2019-05-29T07:44:13.801Z,14.02
2019-05-29T07:46:45.296Z,14.10
2019-05-29T07:49:17.906Z,14.10
2019-05-29T07:51:45.044Z,14.21
2019-05-29T07:54:13.254Z,14.37
2019-05-29T07:56:40.933Z,14.37
2019-05-29T07:59:08.557Z,14.44
2019-05-29T08:01:36.167Z,14.53
2019-05-29T08:04:03.804Z,14.55
2019-05-29T08:06:32.510Z,14.62
2019-05-29T08:09:00.116Z,14.64
2019-05-29T08:11:29.502Z,14.73
2019-05-29T08:13:57.229Z,14.77
2019-05-29T08:16:25.346Z,14.77
2019-05-29T08:18:54.893Z,14.84
2019-05-29T08:21:27.320Z,14.92
2019-05-29T08:23:53.371Z,15.02
2019-05-29T08:26:21.384Z,15.07
2019-05-29T08:28:52.180Z,15.15
2019-05-29T08:31:19.901Z,15.34
2019-05-29T08:33:48.954Z,15.34
2019-05-29T08:36:16.782Z,15.42
2019-05-29T08:38:47.839Z,15.47
2019-05-29T08:41:15.620Z,15.53
2019-05-29T08:43:45.260Z,15.53
2019-05-29T08:46:12.964Z,15.61
2019-05-29T08:48:41.758Z,15.70
2019-05-29T08:51:09.594Z,15.73
2019-05-29T08:53:37.300Z,15.96
2019-05-29T08:56:05.357Z,15.96
2019-05-29T08:58:33.008Z,16.12
2019-05-29T09:01:00.658Z,16.29
2019-05-29T09:03:28.270Z,16.62
2019-05-29T09:06:08.569Z,16.62
2019-05-29T09:08:28.772Z,16.73
2019-05-29T09:10:56.408Z,16.82
2019-05-29T09:13:33.286Z,16.82
2019-05-29T09:16:01.030Z,16.84
2019-05-29T09:18:28.668Z,16.89
2019-05-29T09:21:03.452Z,16.98
2019-05-29T09:23:27.556Z,17.24
2019-05-29T09:25:55.610Z,17.31
2019-05-29T09:28:23.966Z,17.31
2019-05-29T09:30:51.631Z,17.50
2019-05-29T09:33:22.015Z,17.50
2019-05-29T09:35:50.778Z,17.65
2019-05-29T09:38:20.855Z,17.65
2019-05-29T09:40:48.651Z,17.70
2019-05-29T09:43:18.063Z,17.99
2019-05-29T09:46:03.682Z,17.99
2019-05-29T09:48:31.462Z,18.17
2019-05-29T09:51:20.320Z,18.26
2019-05-29T09:53:33.409Z,18.68
2019-05-29T09:56:04.241Z,18.68
2019-05-29T09:58:31.985Z,18.98
2019-05-29T10:01:18.543Z,19.26
2019-05-29T10:03:32.223Z,19.89
2019-05-29T10:06:10.173Z,19.89
2019-05-29T10:08:29.424Z,20.26
2019-05-29T10:11:04.720Z,20.61
2019-05-29T10:13:30.879Z,20.95
2019-05-29T10:15:59.117Z,21.30
2019-05-29T10:18:32.349Z,21.69
2019-05-29T10:21:01.356Z,22.06
2019-05-29T10:23:32.371Z,22.41
2019-05-29T10:26:05.030Z,22.73
2019-05-29T10:28:49.419Z,22.98
2019-05-29T10:31:08.430Z,23.21
2019-05-29T10:33:38.769Z,23.44
2019-05-29T10:36:06.850Z,23.19
2019-05-29T10:38:34.604Z,23.15
2019-05-29T10:41:07.062Z,23.50
2019-05-29T10:43:35.128Z,23.75
2019-05-29T10:46:02.850Z,24.07
2019-05-29T10:48:30.564Z,24.45
2019-05-29T10:50:58.262Z,24.80
2019-05-29T10:53:26.537Z,25.01
2019-05-29T10:55:54.962Z,25.13
2019-05-29T10:58:24.875Z,25.36
2019-05-29T11:00:59.199Z,25.58
2019-05-29T11:03:31.844Z,25.81
2019-05-29T11:06:04.349Z,25.82
2019-05-29T11:08:30.547Z,25.97
2019-05-29T11:11:04.244Z,26.13
2019-05-29T11:13:36.932Z,26.48
2019-05-29T11:16:04.583Z,26.48
2019-05-29T11:18:36.353Z,26.62
2019-05-29T11:21:04.273Z,26.77
2019-05-29T11:23:32.297Z,26.95
2019-05-29T11:26:00.118Z,27.00
2019-05-29T11:28:27.777Z,27.11
2019-05-29T11:30:55.949Z,27.34
2019-05-29T11:33:24.743Z,27.52
2019-05-29T11:36:08.942Z,27.80
2019-05-29T11:38:25.271Z,27.80
2019-05-29T11:41:23.543Z,28.03
2019-05-29T11:43:28.236Z,28.03
2019-05-29T11:45:57.267Z,28.22
2019-05-29T11:48:26.355Z,28.65
2019-05-29T11:50:56.182Z,28.65
2019-05-29T11:53:26.021Z,28.77
2019-05-29T11:55:54.027Z,28.77
2019-05-29T11:58:31.263Z,28.87
2019-05-29T12:00:57.193Z,28.96
2019-05-29T12:03:26.805Z,28.98
2019-05-29T12:05:55.261Z,28.97
2019-05-29T12:08:23.759Z,28.96
2019-05-29T12:10:51.339Z,29.08
2019-05-29T12:13:20.495Z,29.08
2019-05-29T12:15:48.643Z,29.19
2019-05-29T12:18:23.690Z,29.27
2019-05-29T12:20:45.793Z,29.27
2019-05-29T12:23:25.826Z,29.38
2019-05-29T12:25:42.839Z,29.55
2019-05-29T12:28:10.532Z,29.70
2019-05-29T12:30:38.229Z,29.94
2019-05-29T12:33:08.110Z,30.08
2019-05-29T12:35:35.755Z,30.17
2019-05-29T12:38:03.585Z,30.35
2019-05-29T12:40:31.172Z,30.59
2019-05-29T12:43:00.170Z,30.59
2019-05-29T12:45:27.878Z,30.58
2019-05-29T12:47:56.550Z,30.66
2019-05-29T12:50:26.123Z,30.83
2019-05-29T12:52:53.902Z,30.91
2019-05-29T12:55:23.928Z,30.98
2019-05-29T12:57:51.763Z,31.07
2019-05-29T13:00:19.674Z,31.14
2019-05-29T13:02:47.519Z,31.14
2019-05-29T13:05:20.084Z,31.04
2019-05-29T13:07:44.578Z,31.13
2019-05-29T13:10:29.040Z,31.37
2019-05-29T13:12:42.025Z,31.53
2019-05-29T13:15:10.524Z,31.73
2019-05-29T13:17:41.268Z,31.76
2019-05-29T13:20:20.935Z,31.76
2019-05-29T13:22:41.727Z,31.71
2019-05-29T13:25:12.141Z,31.74
2019-05-29T13:27:38.571Z,32.12
2019-05-29T13:30:08.161Z,32.12
2019-05-29T13:32:35.770Z,32.19
2019-05-29T13:35:06.174Z,32.19
2019-05-29T13:37:34.339Z,32.20
2019-05-29T13:40:05.539Z,32.26
2019-05-29T13:42:31.344Z,32.30
2019-05-29T13:45:00.921Z,32.45
2019-05-29T13:47:28.429Z,32.49
2019-05-29T13:49:58.878Z,32.55
2019-05-29T13:52:26.515Z,32.53
2019-05-29T13:54:57.329Z,32.59
2019-05-29T13:57:27.688Z,32.70
2019-05-29T13:59:57.936Z,32.72
2019-05-29T14:02:25.503Z,32.80
2019-05-29T14:04:53.243Z,32.94
2019-05-29T14:07:20.912Z,33.11
2019-05-29T14:09:48.603Z,33.34
2019-05-29T14:12:16.288Z,33.20
2019-05-29T14:14:43.901Z,33.20
2019-05-29T14:17:12.867Z,33.14
2019-05-29T14:19:42.617Z,33.29
2019-05-29T14:22:10.248Z,33.33
2019-05-29T14:24:40.133Z,33.49
2019-05-29T14:27:07.693Z,33.57
2019-05-29T14:29:35.357Z,33.59
2019-05-29T14:32:07.216Z,33.50
2019-05-29T14:34:37.158Z,33.49
2019-05-29T14:37:06.109Z,33.63
2019-05-29T14:39:34.250Z,33.49
2019-05-29T14:42:01.849Z,33.50
2019-05-29T14:44:29.595Z,33.47
2019-05-29T14:46:57.142Z,33.60
2019-05-29T14:49:27.152Z,33.55
2019-05-29T14:51:58.624Z,32.13
2019-05-29T14:54:41.378Z,31.75
2019-05-29T14:56:58.187Z,32.01
2019-05-29T14:59:32.036Z,31.49
2019-05-29T15:01:58.974Z,30.46
2019-05-29T15:04:27.096Z,30.82
2019-05-29T15:06:59.927Z,31.49
2019-05-29T15:09:30.141Z,32.02
2019-05-29T15:11:58.081Z,32.48
2019-05-29T15:14:28.258Z,33.15
2019-05-29T15:16:55.806Z,33.87
2019-05-29T15:19:23.520Z,34.36
2019-05-29T15:21:51.170Z,34.72
2019-05-29T15:24:20.085Z,34.85
2019-05-29T15:26:47.680Z,34.88
2019-05-29T15:29:17.872Z,34.91
2019-05-29T15:31:45.192Z,34.92
2019-05-29T15:34:12.917Z,34.98
2019-05-29T15:36:40.978Z,34.82
2019-05-29T15:39:08.667Z,34.11
2019-05-29T15:41:36.252Z,33.50
2019-05-29T15:44:03.956Z,33.25
2019-05-29T15:46:38.073Z,33.01
2019-05-29T15:49:06.796Z,32.52
2019-05-29T15:51:34.413Z,30.78
2019-05-29T15:54:02.130Z,29.45
2019-05-29T15:56:29.698Z,27.54
2019-05-29T15:58:57.319Z,27.54
2019-05-29T16:01:46.334Z,28.14
2019-05-29T16:04:13.952Z,28.97
2019-05-29T16:06:43.213Z,29.73
2019-05-29T16:09:14.313Z,30.32
2019-05-29T16:11:42.024Z,30.66
2019-05-29T16:14:14.958Z,30.87
2019-05-29T16:16:45.010Z,30.99
2019-05-29T16:19:12.749Z,30.94
2019-05-29T16:21:41.618Z,30.51
2019-05-29T16:24:14.651Z,29.58
2019-05-29T16:26:42.272Z,28.25
2019-05-29T16:29:10.480Z,26.95
2019-05-29T16:31:38.197Z,25.84
2019-05-29T16:34:06.410Z,24.96
2019-05-29T16:36:34.165Z,24.14
2019-05-29T16:39:05.246Z,23.42
2019-05-29T16:41:34.884Z,22.80
2019-05-29T16:44:02.569Z,22.31
2019-05-29T16:46:30.232Z,21.89
2019-05-29T16:48:58.579Z,21.73
2019-05-29T16:51:32.160Z,22.41
2019-05-29T16:54:02.693Z,22.62
2019-05-29T16:56:30.339Z,22.32
2019-05-29T16:58:58.285Z,21.91
2019-05-29T17:01:33.651Z,21.54
2019-05-29T17:04:02.908Z,20.97
2019-05-29T17:06:30.496Z,20.97
2019-05-29T17:08:58.117Z,20.71
2019-05-29T17:11:27.432Z,20.52
2019-05-29T17:13:56.173Z,20.34
2019-05-29T17:16:25.262Z,20.05
2019-05-29T17:18:54.111Z,20.05
2019-05-29T17:21:22.731Z,19.91
2019-05-29T17:23:50.456Z,19.68
2019-05-29T17:26:18.693Z,19.68
2019-05-29T17:28:46.233Z,19.57
2019-05-29T17:31:14.969Z,19.41
2019-05-29T17:33:42.536Z,19.32
2019-05-29T17:36:11.470Z,19.32
2019-05-29T17:38:39.059Z,19.25
2019-05-29T17:41:06.916Z,19.17
2019-05-29T17:43:38.910Z,19.08
2019-05-29T17:46:12.255Z,19.01
2019-05-29T17:48:39.838Z,18.93
2019-05-29T17:51:12.026Z,18.86
2019-05-29T17:53:39.879Z,18.79
2019-05-29T17:56:07.526Z,18.74
2019-05-29T17:58:37.927Z,18.69
2019-05-29T18:01:07.484Z,18.57
2019-05-29T18:03:43.568Z,18.53
2019-05-29T18:06:14.607Z,18.53
2019-05-29T18:08:43.821Z,18.48
2019-05-29T18:11:13.091Z,18.44
2019-05-29T18:13:40.718Z,18.39
2019-05-29T18:16:09.554Z,18.33
2019-05-29T18:18:37.160Z,18.28
2019-05-29T18:21:05.250Z,18.22
2019-05-29T18:23:35.713Z,18.18
2019-05-29T18:26:04.375Z,18.06
2019-05-29T18:28:32.027Z,18.06
2019-05-29T18:30:59.587Z,18.02
2019-05-29T18:33:29.976Z,17.98
2019-05-29T18:35:57.553Z,17.87
2019-05-29T18:38:26.513Z,17.87
2019-05-29T18:40:54.247Z,17.80
2019-05-29T18:43:26.568Z,17.74
2019-05-29T18:45:54.390Z,17.59
2019-05-29T18:48:23.177Z,17.51
2019-05-29T18:51:01.941Z,17.51
2019-05-29T18:53:33.103Z,17.45
2019-05-29T18:56:00.835Z,17.38
2019-05-29T18:58:28.463Z,17.30
2019-05-29T19:00:58.095Z,17.16
2019-05-29T19:03:27.531Z,17.16
2019-05-29T19:06:00.175Z,17.10
2019-05-29T19:08:27.799Z,16.96
2019-05-29T19:10:57.175Z,16.96
2019-05-29T19:13:29.944Z,16.89
2019-05-29T19:16:02.129Z,16.80
2019-05-29T19:18:30.203Z,16.68
2019-05-29T19:20:58.585Z,16.40
2019-05-29T19:23:26.558Z,16.40
2019-05-29T19:25:56.267Z,16.27
2019-05-29T19:28:26.517Z,16.14
2019-05-29T19:30:55.303Z,16.03
2019-05-29T19:33:23.743Z,15.91
2019-05-29T19:35:51.363Z,15.70
2019-05-29T19:38:19.043Z,15.70
2019-05-29T19:40:49.618Z,15.59
2019-05-29T19:43:17.258Z,15.53
2019-05-29T19:45:44.852Z,15.43
2019-05-29T19:48:12.588Z,15.27
2019-05-29T19:50:41.217Z,15.27
2019-05-29T19:53:09.349Z,15.21
2019-05-29T19:55:38.341Z,15.11
2019-05-29T19:58:07.522Z,15.03
2019-05-29T20:00:41.791Z,14.87
2019-05-29T20:03:12.485Z,14.79
2019-05-29T20:05:41.929Z,14.69
2019-05-29T20:08:11.584Z,14.61
2019-05-29T20:10:39.172Z,14.61
2019-05-29T20:13:06.807Z,14.54
2019-05-29T20:15:34.400Z,14.39
2019-05-29T20:18:03.839Z,14.36
2019-05-29T20:20:32.371Z,14.36
2019-05-29T20:23:02.822Z,14.32
2019-05-29T20:25:33.252Z,14.25
2019-05-29T20:28:07.003Z,14.25
2019-05-29T20:30:40.680Z,14.18
2019-05-29T20:33:11.579Z,14.00
2019-05-29T20:35:40.319Z,13.89
2019-05-29T20:38:14.682Z,13.89
2019-05-29T20:40:44.238Z,13.61
2019-05-29T20:43:14.787Z,13.61
2019-05-29T20:45:42.394Z,13.42
2019-05-29T20:48:10.387Z,13.35
2019-05-29T20:50:39.169Z,13.30
2019-05-29T20:53:07.549Z,13.30
2019-05-29T20:55:37.839Z,13.23
2019-05-29T20:58:21.489Z,13.23
2019-05-29T21:00:40.238Z,13.16
2019-05-29T21:03:10.090Z,13.16
2019-05-29T21:05:38.697Z,13.12
2019-05-29T21:08:06.215Z,13.12
2019-05-29T21:10:35.022Z,13.10
2019-05-29T21:13:04.697Z,13.07
2019-05-29T21:15:33.441Z,13.07
2019-05-29T21:18:03.231Z,13.07
2019-05-29T21:20:34.166Z,13.03
2019-05-29T21:23:01.710Z,13.03
2019-05-29T21:25:36.568Z,12.99
2019-05-29T21:28:01.148Z,12.99
2019-05-29T21:30:28.741Z,13.00
2019-05-29T21:32:58.375Z,13.01
2019-05-29T21:35:27.263Z,13.00
2019-05-29T21:37:57.044Z,13.00
2019-05-29T21:40:26.727Z,12.99
2019-05-29T21:42:58.129Z,12.98
2019-05-29T21:45:25.740Z,12.98
2019-05-29T21:47:53.472Z,13.05
2019-05-29T21:50:21.060Z,13.05
2019-05-29T21:52:48.732Z,13.09
2019-05-29T21:55:16.400Z,13.09
2019-05-29T21:57:47.982Z,13.12
2019-05-29T22:00:16.339Z,13.12
2019-05-29T22:02:44.495Z,13.11
2019-05-29T22:05:12.405Z,13.11
2019-05-29T22:07:40.676Z,13.05
2019-05-29T22:10:08.442Z,12.96
2019-05-29T22:12:36.263Z,12.93
2019-05-29T22:15:04.513Z,12.92
2019-05-29T22:17:32.289Z,12.91
2019-05-29T22:20:01.254Z,12.90
2019-05-29T22:22:30.829Z,12.91
2019-05-29T22:24:59.356Z,12.91
2019-05-29T22:27:27.010Z,12.91
2019-05-29T22:29:55.305Z,12.89
2019-05-29T22:32:26.054Z,12.89
2019-05-29T22:34:55.430Z,12.88
2019-05-29T22:37:23.573Z,12.87
2019-05-29T22:39:55.486Z,12.86
2019-05-29T22:42:22.331Z,12.85
2019-05-29T22:44:50.014Z,12.85
2019-05-29T22:47:18.169Z,12.85
2019-05-29T22:49:45.861Z,12.83
2019-05-29T22:52:15.849Z,12.83
2019-05-29T22:54:43.883Z,12.80
2019-05-29T22:57:14.361Z,12.73
2019-05-29T22:59:42.285Z,12.64
2019-05-29T23:02:09.948Z,12.44
2019-05-29T23:04:37.600Z,12.44
2019-05-29T23:07:14.031Z,12.36
2019-05-29T23:09:52.344Z,12.20
2019-05-29T23:12:18.654Z,12.20
2019-05-29T23:14:46.260Z,12.13
2019-05-29T23:17:13.977Z,12.03
2019-05-29T23:19:41.640Z,12.03
2019-05-29T23:22:09.219Z,11.93
2019-05-29T23:24:37.289Z,11.90
2019-05-29T23:27:04.926Z,11.90
2019-05-29T23:29:48.043Z,11.83
2019-05-29T23:32:03.151Z,11.79
2019-05-29T23:34:31.194Z,11.79
2019-05-29T23:36:59.158Z,11.75
2019-05-29T23:39:26.870Z,11.72
2019-05-29T23:41:55.239Z,11.70
2019-05-29T23:44:23.068Z,11.69
2019-05-29T23:46:51.143Z,11.67
2019-05-29T23:49:18.893Z,11.67
2019-05-29T23:51:46.666Z,11.70
2019-05-29T23:54:14.366Z,11.72
2019-05-29T23:56:42.015Z,11.76
2019-05-29T23:59:10.070Z,11.76
